sensor_id;sensor_type;location;lat;lon;timestamp;P1;durP1;ratioP1;P2;durP2;ratioP2
70213;SDS011;60138;55.808;37.078;2023-06-24T00:00:01;15.90;;;10.23;;
70213;SDS011;60138;55.808;37.078;2023-06-24T00:02:34;14.43;;;9.48;;
70213;SDS011;60138;55.808;37.078;2023-06-24T00:05:00;15.50;;;10.80;;
70213;SDS011;60138;55.808;37.078;2023-06-24T00:07:25;12.97;;;10.83;;
70213;SDS011;60138;55.808;37.078;2023-06-24T00:09:51;15.05;;;9.93;;
70213;SDS011;60138;55.808;37.078;2023-06-24T00:12:17;12.73;;;10.17;;
70213;SDS011;60138;55.808;37.078;2023-06-24T00:14:43;13.20;;;10.70;;
70213;SDS011;60138;55.808;37.078;2023-06-24T00:17:08;12.70;;;10.33;;
70213;SDS011;60138;55.808;37.078;2023-06-24T00:19:34;12.90;;;10.15;;
70213;SDS011;60138;55.808;37.078;2023-06-24T00:22:00;15.23;;;11.40;;
70213;SDS011;60138;55.808;37.078;2023-06-24T00:24:25;14.48;;;11.40;;
70213;SDS011;60138;55.808;37.078;2023-06-24T00:26:51;15.00;;;10.70;;
70213;SDS011;60138;55.808;37.078;2023-06-24T00:29:17;14.85;;;12.27;;
70213;SDS011;60138;55.808;37.078;2023-06-24T00:31:43;15.80;;;11.07;;
70213;SDS011;60138;55.808;37.078;2023-06-24T00:34:09;14.10;;;10.85;;
70213;SDS011;60138;55.808;37.078;2023-06-24T00:36:35;15.57;;;10.70;;
70213;SDS011;60138;55.808;37.078;2023-06-24T00:39:01;15.97;;;10.67;;
70213;SDS011;60138;55.808;37.078;2023-06-24T00:41:27;13.07;;;10.38;;
70213;SDS011;60138;55.808;37.078;2023-06-24T00:43:53;16.02;;;11.27;;
70213;SDS011;60138;55.808;37.078;2023-06-24T00:46:19;15.50;;;11.25;;
70213;SDS011;60138;55.808;37.078;2023-06-24T00:48:45;16.40;;;10.63;;
70213;SDS011;60138;55.808;37.078;2023-06-24T00:51:11;13.77;;;11.23;;
70213;SDS011;60138;55.808;37.078;2023-06-24T00:53:38;13.70;;;10.87;;
70213;SDS011;60138;55.808;37.078;2023-06-24T00:56:03;12.90;;;10.30;;
70213;SDS011;60138;55.808;37.078;2023-06-24T00:58:31;14.60;;;10.88;;
70213;SDS011;60138;55.808;37.078;2023-06-24T01:00:58;15.38;;;11.00;;
70213;SDS011;60138;55.808;37.078;2023-06-24T01:03:25;15.52;;;10.02;;
70213;SDS011;60138;55.808;37.078;2023-06-24T01:05:51;17.23;;;10.67;;
70213;SDS011;60138;55.808;37.078;2023-06-24T01:08:19;15.85;;;11.15;;
70213;SDS011;60138;55.808;37.078;2023-06-24T01:10:45;17.47;;;10.83;;
70213;SDS011;60138;55.808;37.078;2023-06-24T01:13:11;16.10;;;10.32;;
70213;SDS011;60138;55.808;37.078;2023-06-24T01:15:37;11.98;;;9.05;;
70213;SDS011;60138;55.808;37.078;2023-06-24T01:18:07;22.35;;;12.57;;
70213;SDS011;60138;55.808;37.078;2023-06-24T01:31:46;8.05;;;5.18;;
70213;SDS011;60138;55.808;37.078;2023-06-24T01:39:47;10.68;;;5.22;;
70213;SDS011;60138;55.808;37.078;2023-06-24T01:42:16;11.65;;;4.60;;
70213;SDS011;60138;55.808;37.078;2023-06-24T01:44:45;14.50;;;5.70;;
70213;SDS011;60138;55.808;37.078;2023-06-24T01:47:13;19.65;;;6.82;;
70213;SDS011;60138;55.808;37.078;2023-06-24T01:49:45;22.77;;;6.90;;
70213;SDS011;60138;55.808;37.078;2023-06-24T01:52:11;11.10;;;5.07;;
70213;SDS011;60138;55.808;37.078;2023-06-24T01:54:39;15.88;;;5.63;;
70213;SDS011;60138;55.808;37.078;2023-06-24T01:57:07;16.90;;;5.22;;
70213;SDS011;60138;55.808;37.078;2023-06-24T01:59:35;12.70;;;4.63;;
70213;SDS011;60138;55.808;37.078;2023-06-24T02:02:04;14.07;;;4.83;;
70213;SDS011;60138;55.808;37.078;2023-06-24T02:04:31;10.20;;;3.47;;
70213;SDS011;60138;55.808;37.078;2023-06-24T02:07:02;5.38;;;2.53;;
70213;SDS011;60138;55.808;37.078;2023-06-24T02:09:29;6.72;;;3.53;;
70213;SDS011;60138;55.808;37.078;2023-06-24T02:11:57;10.93;;;3.78;;
70213;SDS011;60138;55.808;37.078;2023-06-24T02:14:25;4.73;;;2.47;;
70213;SDS011;60138;55.808;37.078;2023-06-24T02:16:53;17.63;;;5.07;;
70213;SDS011;60138;55.808;37.078;2023-06-24T02:19:22;11.02;;;3.63;;
70213;SDS011;60138;55.808;37.078;2023-06-24T02:21:54;10.10;;;3.70;;
70213;SDS011;60138;55.808;37.078;2023-06-24T02:24:23;8.05;;;3.33;;
70213;SDS011;60138;55.808;37.078;2023-06-24T02:26:49;5.50;;;2.40;;
70213;SDS011;60138;55.808;37.078;2023-06-24T02:29:16;5.30;;;2.35;;
70213;SDS011;60138;55.808;37.078;2023-06-24T02:31:43;5.50;;;2.25;;
70213;SDS011;60138;55.808;37.078;2023-06-24T02:34:09;6.15;;;2.42;;
70213;SDS011;60138;55.808;37.078;2023-06-24T02:36:35;5.63;;;2.00;;
70213;SDS011;60138;55.808;37.078;2023-06-24T02:39:01;7.30;;;2.73;;
70213;SDS011;60138;55.808;37.078;2023-06-24T02:41:27;4.05;;;1.80;;
70213;SDS011;60138;55.808;37.078;2023-06-24T02:43:53;5.05;;;2.33;;
70213;SDS011;60138;55.808;37.078;2023-06-24T02:46:19;3.28;;;1.88;;
70213;SDS011;60138;55.808;37.078;2023-06-24T02:48:47;6.47;;;2.47;;
70213;SDS011;60138;55.808;37.078;2023-06-24T02:51:14;2.27;;;2.00;;
70213;SDS011;60138;55.808;37.078;2023-06-24T02:53:41;2.83;;;1.55;;
70213;SDS011;60138;55.808;37.078;2023-06-24T02:56:11;2.50;;;1.90;;
70213;SDS011;60138;55.808;37.078;2023-06-24T02:58:39;3.85;;;1.80;;
70213;SDS011;60138;55.808;37.078;2023-06-24T03:01:11;3.22;;;1.30;;
70213;SDS011;60138;55.808;37.078;2023-06-24T03:03:47;1.90;;;1.60;;
70213;SDS011;60138;55.808;37.078;2023-06-24T03:06:14;2.65;;;1.73;;
70213;SDS011;60138;55.808;37.078;2023-06-24T03:08:40;3.95;;;1.50;;
70213;SDS011;60138;55.808;37.078;2023-06-24T03:11:08;1.90;;;1.50;;
70213;SDS011;60138;55.808;37.078;2023-06-24T03:13:33;2.17;;;1.80;;
70213;SDS011;60138;55.808;37.078;2023-06-24T03:16:18;2.35;;;1.95;;
70213;SDS011;60138;55.808;37.078;2023-06-24T03:18:54;1.80;;;1.20;;
70213;SDS011;60138;55.808;37.078;2023-06-24T03:21:21;4.03;;;2.05;;
70213;SDS011;60138;55.808;37.078;2023-06-24T03:23:49;1.92;;;1.42;;
70213;SDS011;60138;55.808;37.078;2023-06-24T03:26:15;3.43;;;2.03;;
70213;SDS011;60138;55.808;37.078;2023-06-24T03:28:42;2.17;;;1.63;;
70213;SDS011;60138;55.808;37.078;2023-06-24T03:31:14;2.97;;;1.65;;
70213;SDS011;60138;55.808;37.078;2023-06-24T03:33:40;2.20;;;1.38;;
70213;SDS011;60138;55.808;37.078;2023-06-24T03:36:06;3.63;;;1.67;;
70213;SDS011;60138;55.808;37.078;2023-06-24T03:38:33;2.47;;;1.37;;
70213;SDS011;60138;55.808;37.078;2023-06-24T03:40:59;2.45;;;1.55;;
70213;SDS011;60138;55.808;37.078;2023-06-24T03:43:25;2.58;;;1.58;;
70213;SDS011;60138;55.808;37.078;2023-06-24T03:45:51;3.50;;;1.67;;
70213;SDS011;60138;55.808;37.078;2023-06-24T03:48:18;4.05;;;1.67;;
70213;SDS011;60138;55.808;37.078;2023-06-24T03:50:44;2.53;;;1.35;;
70213;SDS011;60138;55.808;37.078;2023-06-24T04:30:01;2.50;;;2.10;;
70213;SDS011;60138;55.808;37.078;2023-06-24T04:32:31;2.78;;;1.95;;
70213;SDS011;60138;55.808;37.078;2023-06-24T04:46:00;1.98;;;1.50;;
70213;SDS011;60138;55.808;37.078;2023-06-24T04:48:25;5.37;;;1.93;;
70213;SDS011;60138;55.808;37.078;2023-06-24T04:50:51;2.05;;;1.40;;
70213;SDS011;60138;55.808;37.078;2023-06-24T04:53:17;7.07;;;2.40;;
70213;SDS011;60138;55.808;37.078;2023-06-24T04:55:43;2.73;;;2.10;;
70213;SDS011;60138;55.808;37.078;2023-06-24T04:58:09;7.90;;;2.90;;
70213;SDS011;60138;55.808;37.078;2023-06-24T05:00:34;3.63;;;2.30;;
70213;SDS011;60138;55.808;37.078;2023-06-24T05:03:00;3.25;;;2.60;;
70213;SDS011;60138;55.808;37.078;2023-06-24T05:05:26;9.50;;;1.87;;
70213;SDS011;60138;55.808;37.078;2023-06-24T05:07:52;4.45;;;2.53;;
70213;SDS011;60138;55.808;37.078;2023-06-24T05:10:18;1.97;;;1.63;;
70213;SDS011;60138;55.808;37.078;2023-06-24T05:12:44;2.63;;;2.00;;
70213;SDS011;60138;55.808;37.078;2023-06-24T05:15:10;4.18;;;1.98;;
70213;SDS011;60138;55.808;37.078;2023-06-24T05:17:36;3.33;;;1.77;;
70213;SDS011;60138;55.808;37.078;2023-06-24T05:20:02;1.85;;;1.55;;
70213;SDS011;60138;55.808;37.078;2023-06-24T05:22:30;3.50;;;1.95;;
70213;SDS011;60138;55.808;37.078;2023-06-24T05:24:55;2.40;;;1.83;;
70213;SDS011;60138;55.808;37.078;2023-06-24T05:27:21;3.30;;;2.15;;
70213;SDS011;60138;55.808;37.078;2023-06-24T05:29:47;3.33;;;2.03;;
70213;SDS011;60138;55.808;37.078;2023-06-24T05:32:13;3.90;;;1.60;;
70213;SDS011;60138;55.808;37.078;2023-06-24T05:34:38;3.57;;;2.30;;
70213;SDS011;60138;55.808;37.078;2023-06-24T05:37:04;4.40;;;2.40;;
70213;SDS011;60138;55.808;37.078;2023-06-24T05:39:30;4.35;;;2.60;;
70213;SDS011;60138;55.808;37.078;2023-06-24T05:41:56;4.15;;;2.67;;
70213;SDS011;60138;55.808;37.078;2023-06-24T05:44:22;5.57;;;2.60;;
70213;SDS011;60138;55.808;37.078;2023-06-24T05:46:48;5.17;;;2.90;;
70213;SDS011;60138;55.808;37.078;2023-06-24T05:49:14;8.55;;;2.53;;
70213;SDS011;60138;55.808;37.078;2023-06-24T05:51:40;5.90;;;2.90;;
70213;SDS011;60138;55.808;37.078;2023-06-24T05:54:06;9.60;;;3.10;;
70213;SDS011;60138;55.808;37.078;2023-06-24T05:56:32;4.68;;;2.25;;
70213;SDS011;60138;55.808;37.078;2023-06-24T05:58:57;8.57;;;3.47;;
70213;SDS011;60138;55.808;37.078;2023-06-24T06:01:23;5.95;;;2.63;;
70213;SDS011;60138;55.808;37.078;2023-06-24T06:03:49;7.97;;;3.03;;
70213;SDS011;60138;55.808;37.078;2023-06-24T06:06:14;10.27;;;4.10;;
70213;SDS011;60138;55.808;37.078;2023-06-24T06:08:40;12.90;;;4.47;;
70213;SDS011;60138;55.808;37.078;2023-06-24T06:11:06;8.77;;;2.70;;
70213;SDS011;60138;55.808;37.078;2023-06-24T06:13:33;8.00;;;3.38;;
70213;SDS011;60138;55.808;37.078;2023-06-24T06:15:58;4.97;;;2.63;;
70213;SDS011;60138;55.808;37.078;2023-06-24T06:18:24;2.65;;;1.90;;
70213;SDS011;60138;55.808;37.078;2023-06-24T06:20:50;4.90;;;2.65;;
70213;SDS011;60138;55.808;37.078;2023-06-24T06:23:16;9.23;;;3.27;;
70213;SDS011;60138;55.808;37.078;2023-06-24T06:25:42;10.50;;;3.50;;
70213;SDS011;60138;55.808;37.078;2023-06-24T06:28:08;6.65;;;2.50;;
70213;SDS011;60138;55.808;37.078;2023-06-24T06:30:34;7.63;;;3.88;;
70213;SDS011;60138;55.808;37.078;2023-06-24T06:33:00;7.20;;;3.13;;
70213;SDS011;60138;55.808;37.078;2023-06-24T06:35:25;7.72;;;3.35;;
70213;SDS011;60138;55.808;37.078;2023-06-24T06:37:51;4.67;;;2.63;;
70213;SDS011;60138;55.808;37.078;2023-06-24T06:40:20;3.33;;;2.20;;
70213;SDS011;60138;55.808;37.078;2023-06-24T06:42:46;3.60;;;2.30;;
70213;SDS011;60138;55.808;37.078;2023-06-24T06:45:12;10.13;;;2.77;;
70213;SDS011;60138;55.808;37.078;2023-06-24T06:47:38;4.35;;;2.65;;
70213;SDS011;60138;55.808;37.078;2023-06-24T06:50:04;3.47;;;2.15;;
70213;SDS011;60138;55.808;37.078;2023-06-24T06:52:31;4.50;;;2.08;;
70213;SDS011;60138;55.808;37.078;2023-06-24T06:54:57;5.20;;;2.47;;
70213;SDS011;60138;55.808;37.078;2023-06-24T06:57:23;3.13;;;2.35;;
70213;SDS011;60138;55.808;37.078;2023-06-24T06:59:50;5.10;;;2.65;;
70213;SDS011;60138;55.808;37.078;2023-06-24T07:02:16;4.13;;;2.40;;
70213;SDS011;60138;55.808;37.078;2023-06-24T07:04:43;6.88;;;2.33;;
70213;SDS011;60138;55.808;37.078;2023-06-24T07:07:09;4.20;;;2.67;;
70213;SDS011;60138;55.808;37.078;2023-06-24T07:09:34;5.47;;;3.00;;
70213;SDS011;60138;55.808;37.078;2023-06-24T07:12:01;4.50;;;2.80;;
70213;SDS011;60138;55.808;37.078;2023-06-24T07:14:27;4.85;;;2.88;;
70213;SDS011;60138;55.808;37.078;2023-06-24T07:16:52;6.22;;;2.53;;
70213;SDS011;60138;55.808;37.078;2023-06-24T07:19:18;4.50;;;3.10;;
70213;SDS011;60138;55.808;37.078;2023-06-24T07:21:44;4.85;;;3.03;;
70213;SDS011;60138;55.808;37.078;2023-06-24T07:24:10;5.73;;;3.10;;
70213;SDS011;60138;55.808;37.078;2023-06-24T07:26:35;7.07;;;3.67;;
70213;SDS011;60138;55.808;37.078;2023-06-24T07:29:01;6.20;;;4.07;;
70213;SDS011;60138;55.808;37.078;2023-06-24T07:31:30;6.68;;;3.33;;
70213;SDS011;60138;55.808;37.078;2023-06-24T07:33:56;6.60;;;3.05;;
70213;SDS011;60138;55.808;37.078;2023-06-24T07:36:22;4.83;;;3.00;;
70213;SDS011;60138;55.808;37.078;2023-06-24T07:38:48;5.72;;;4.13;;
70213;SDS011;60138;55.808;37.078;2023-06-24T07:41:14;7.03;;;3.65;;
70213;SDS011;60138;55.808;37.078;2023-06-24T07:43:40;5.87;;;3.77;;
70213;SDS011;60138;55.808;37.078;2023-06-24T07:46:05;7.03;;;3.67;;
70213;SDS011;60138;55.808;37.078;2023-06-24T07:48:31;7.33;;;4.10;;
70213;SDS011;60138;55.808;37.078;2023-06-24T07:50:57;5.80;;;3.15;;
70213;SDS011;60138;55.808;37.078;2023-06-24T07:53:23;9.37;;;3.70;;
70213;SDS011;60138;55.808;37.078;2023-06-24T07:55:49;5.70;;;3.72;;
70213;SDS011;60138;55.808;37.078;2023-06-24T07:58:15;7.03;;;3.67;;
70213;SDS011;60138;55.808;37.078;2023-06-24T08:00:41;5.47;;;3.20;;
70213;SDS011;60138;55.808;37.078;2023-06-24T08:03:07;6.13;;;3.13;;
70213;SDS011;60138;55.808;37.078;2023-06-24T08:05:32;6.80;;;3.10;;
70213;SDS011;60138;55.808;37.078;2023-06-24T08:07:58;5.95;;;3.40;;
70213;SDS011;60138;55.808;37.078;2023-06-24T08:10:24;7.13;;;3.20;;
70213;SDS011;60138;55.808;37.078;2023-06-24T08:12:49;5.07;;;2.90;;
70213;SDS011;60138;55.808;37.078;2023-06-24T08:15:15;5.70;;;3.57;;
70213;SDS011;60138;55.808;37.078;2023-06-24T08:17:41;7.03;;;3.45;;
70213;SDS011;60138;55.808;37.078;2023-06-24T08:20:07;4.50;;;2.73;;
70213;SDS011;60138;55.808;37.078;2023-06-24T08:22:33;6.38;;;3.67;;
70213;SDS011;60138;55.808;37.078;2023-06-24T08:24:59;4.32;;;3.25;;
70213;SDS011;60138;55.808;37.078;2023-06-24T08:27:24;7.45;;;2.97;;
70213;SDS011;60138;55.808;37.078;2023-06-24T08:29:50;7.00;;;3.43;;
70213;SDS011;60138;55.808;37.078;2023-06-24T08:32:16;5.60;;;2.90;;
70213;SDS011;60138;55.808;37.078;2023-06-24T08:34:41;6.00;;;3.70;;
70213;SDS011;60138;55.808;37.078;2023-06-24T08:37:07;9.63;;;4.30;;
70213;SDS011;60138;55.808;37.078;2023-06-24T08:39:33;9.00;;;4.13;;
70213;SDS011;60138;55.808;37.078;2023-06-24T08:41:59;14.55;;;4.50;;
70213;SDS011;60138;55.808;37.078;2023-06-24T08:44:24;7.20;;;4.10;;
70213;SDS011;60138;55.808;37.078;2023-06-24T08:46:50;8.27;;;4.60;;
70213;SDS011;60138;55.808;37.078;2023-06-24T09:15:57;7.25;;;5.65;;
70213;SDS011;60138;55.808;37.078;2023-06-24T09:18:24;10.80;;;4.97;;
70213;SDS011;60138;55.808;37.078;2023-06-24T09:20:57;10.60;;;5.20;;
70213;SDS011;60138;55.808;37.078;2023-06-24T09:23:25;9.50;;;5.00;;
70213;SDS011;60138;55.808;37.078;2023-06-24T09:25:57;9.73;;;5.43;;
70213;SDS011;60138;55.808;37.078;2023-06-24T09:28:27;7.85;;;5.60;;
70213;SDS011;60138;55.808;37.078;2023-06-24T09:31:08;9.32;;;5.28;;
70213;SDS011;60138;55.808;37.078;2023-06-24T09:33:35;7.50;;;5.78;;
70213;SDS011;60138;55.808;37.078;2023-06-24T09:36:01;9.17;;;6.10;;
70213;SDS011;60138;55.808;37.078;2023-06-24T09:38:31;9.38;;;6.78;;
70213;SDS011;60138;55.808;37.078;2023-06-24T09:41:02;9.50;;;6.45;;
70213;SDS011;60138;55.808;37.078;2023-06-24T09:43:28;9.95;;;6.88;;
70213;SDS011;60138;55.808;37.078;2023-06-24T09:45:54;13.57;;;9.00;;
70213;SDS011;60138;55.808;37.078;2023-06-24T09:48:20;14.00;;;8.27;;
70213;SDS011;60138;55.808;37.078;2023-06-24T09:50:46;20.17;;;7.95;;
70213;SDS011;60138;55.808;37.078;2023-06-24T09:53:12;13.47;;;7.80;;
70213;SDS011;60138;55.808;37.078;2023-06-24T09:55:38;11.65;;;7.63;;
70213;SDS011;60138;55.808;37.078;2023-06-24T09:58:05;11.43;;;8.05;;
70213;SDS011;60138;55.808;37.078;2023-06-24T10:00:31;14.93;;;8.35;;
70213;SDS011;60138;55.808;37.078;2023-06-24T10:02:56;12.17;;;8.07;;
70213;SDS011;60138;55.808;37.078;2023-06-24T10:05:22;11.82;;;8.40;;
70213;SDS011;60138;55.808;37.078;2023-06-24T10:07:48;16.08;;;9.57;;
70213;SDS011;60138;55.808;37.078;2023-06-24T10:10:14;12.80;;;9.20;;
70213;SDS011;60138;55.808;37.078;2023-06-24T10:12:40;13.98;;;9.95;;
70213;SDS011;60138;55.808;37.078;2023-06-24T10:15:06;16.73;;;9.53;;
70213;SDS011;60138;55.808;37.078;2023-06-24T10:17:35;12.70;;;9.38;;
70213;SDS011;60138;55.808;37.078;2023-06-24T10:20:05;13.93;;;10.02;;
70213;SDS011;60138;55.808;37.078;2023-06-24T10:22:32;13.30;;;10.18;;
70213;SDS011;60138;55.808;37.078;2023-06-24T10:25:02;14.03;;;10.93;;
70213;SDS011;60138;55.808;37.078;2023-06-24T10:27:39;14.75;;;8.32;;
70213;SDS011;60138;55.808;37.078;2023-06-24T10:30:05;17.58;;;8.65;;
70213;SDS011;60138;55.808;37.078;2023-06-24T10:32:41;18.85;;;9.15;;
70213;SDS011;60138;55.808;37.078;2023-06-24T10:35:07;12.15;;;7.82;;
70213;SDS011;60138;55.808;37.078;2023-06-24T10:37:53;12.65;;;8.50;;
70213;SDS011;60138;55.808;37.078;2023-06-24T10:40:33;12.68;;;8.93;;
70213;SDS011;60138;55.808;37.078;2023-06-24T10:43:00;11.48;;;7.82;;
70213;SDS011;60138;55.808;37.078;2023-06-24T10:45:26;10.60;;;7.63;;
70213;SDS011;60138;55.808;37.078;2023-06-24T10:47:52;12.87;;;7.70;;
70213;SDS011;60138;55.808;37.078;2023-06-24T10:50:21;12.35;;;6.88;;
70213;SDS011;60138;55.808;37.078;2023-06-24T10:52:48;8.80;;;6.68;;
70213;SDS011;60138;55.808;37.078;2023-06-24T10:55:15;11.57;;;6.27;;
70213;SDS011;60138;55.808;37.078;2023-06-24T10:57:42;7.97;;;6.43;;
70213;SDS011;60138;55.808;37.078;2023-06-24T11:00:09;8.98;;;6.80;;
70213;SDS011;60138;55.808;37.078;2023-06-24T11:02:36;9.20;;;6.70;;
70213;SDS011;60138;55.808;37.078;2023-06-24T11:05:02;11.17;;;7.60;;
70213;SDS011;60138;55.808;37.078;2023-06-24T11:07:32;9.75;;;7.03;;
70213;SDS011;60138;55.808;37.078;2023-06-24T11:10:12;10.27;;;6.40;;
70213;SDS011;60138;55.808;37.078;2023-06-24T11:12:40;10.07;;;7.60;;
70213;SDS011;60138;55.808;37.078;2023-06-24T11:15:11;10.52;;;8.10;;
70213;SDS011;60138;55.808;37.078;2023-06-24T11:17:38;9.40;;;7.43;;
70213;SDS011;60138;55.808;37.078;2023-06-24T11:20:08;8.98;;;6.97;;
70213;SDS011;60138;55.808;37.078;2023-06-24T11:22:35;8.85;;;7.50;;
70213;SDS011;60138;55.808;37.078;2023-06-24T11:25:01;8.10;;;5.65;;
70213;SDS011;60138;55.808;37.078;2023-06-24T11:27:28;7.78;;;6.00;;
70213;SDS011;60138;55.808;37.078;2023-06-24T11:29:55;7.90;;;6.23;;
70213;SDS011;60138;55.808;37.078;2023-06-24T11:32:34;7.40;;;5.70;;
70213;SDS011;60138;55.808;37.078;2023-06-24T11:35:01;8.57;;;6.32;;
70213;SDS011;60138;55.808;37.078;2023-06-24T11:37:31;7.18;;;5.13;;
70213;SDS011;60138;55.808;37.078;2023-06-24T11:40:04;7.65;;;5.68;;
70213;SDS011;60138;55.808;37.078;2023-06-24T11:42:35;6.40;;;4.67;;
70213;SDS011;60138;55.808;37.078;2023-06-24T11:45:02;8.20;;;5.47;;
70213;SDS011;60138;55.808;37.078;2023-06-24T11:47:32;7.95;;;5.88;;
70213;SDS011;60138;55.808;37.078;2023-06-24T11:49:59;6.72;;;5.55;;
70213;SDS011;60138;55.808;37.078;2023-06-24T11:55:11;6.23;;;4.40;;
70213;SDS011;60138;55.808;37.078;2023-06-24T12:00:19;5.93;;;4.68;;
70213;SDS011;60138;55.808;37.078;2023-06-24T12:02:48;5.40;;;4.28;;
70213;SDS011;60138;55.808;37.078;2023-06-24T12:05:28;9.05;;;5.10;;
70213;SDS011;60138;55.808;37.078;2023-06-24T12:07:56;6.50;;;3.87;;
70213;SDS011;60138;55.808;37.078;2023-06-24T12:10:30;6.18;;;3.67;;
70213;SDS011;60138;55.808;37.078;2023-06-24T12:12:56;8.85;;;4.03;;
70213;SDS011;60138;55.808;37.078;2023-06-24T12:15:22;7.80;;;4.20;;
70213;SDS011;60138;55.808;37.078;2023-06-24T12:17:48;7.43;;;4.53;;
70213;SDS011;60138;55.808;37.078;2023-06-24T12:20:14;6.57;;;4.03;;
70213;SDS011;60138;55.808;37.078;2023-06-24T12:22:40;5.88;;;3.25;;
70213;SDS011;60138;55.808;37.078;2023-06-24T12:25:07;4.68;;;3.35;;
70213;SDS011;60138;55.808;37.078;2023-06-24T12:27:33;4.30;;;3.00;;
70213;SDS011;60138;55.808;37.078;2023-06-24T12:29:59;4.57;;;3.33;;
70213;SDS011;60138;55.808;37.078;2023-06-24T12:32:26;4.75;;;2.95;;
70213;SDS011;60138;55.808;37.078;2023-06-24T12:34:52;7.88;;;3.28;;
70213;SDS011;60138;55.808;37.078;2023-06-24T12:37:18;6.27;;;2.60;;
70213;SDS011;60138;55.808;37.078;2023-06-24T12:39:44;3.90;;;2.60;;
70213;SDS011;60138;55.808;37.078;2023-06-24T12:42:10;5.75;;;2.72;;
70213;SDS011;60138;55.808;37.078;2023-06-24T12:44:36;5.63;;;3.50;;
70213;SDS011;60138;55.808;37.078;2023-06-24T12:47:02;6.80;;;3.33;;
70213;SDS011;60138;55.808;37.078;2023-06-24T12:49:28;4.68;;;3.20;;
70213;SDS011;60138;55.808;37.078;2023-06-24T12:51:53;5.30;;;3.13;;
70213;SDS011;60138;55.808;37.078;2023-06-24T12:54:19;7.10;;;3.38;;
70213;SDS011;60138;55.808;37.078;2023-06-24T12:56:45;5.73;;;3.50;;
70213;SDS011;60138;55.808;37.078;2023-06-24T12:59:10;4.97;;;3.10;;
70213;SDS011;60138;55.808;37.078;2023-06-24T13:01:36;5.43;;;3.50;;
70213;SDS011;60138;55.808;37.078;2023-06-24T13:04:02;4.15;;;2.75;;
70213;SDS011;60138;55.808;37.078;2023-06-24T13:06:28;5.07;;;2.90;;
70213;SDS011;60138;55.808;37.078;2023-06-24T13:08:53;4.30;;;2.93;;
70213;SDS011;60138;55.808;37.078;2023-06-24T13:11:19;6.17;;;2.83;;
70213;SDS011;60138;55.808;37.078;2023-06-24T13:13:45;5.17;;;3.13;;
70213;SDS011;60138;55.808;37.078;2023-06-24T13:16:11;5.57;;;2.83;;
70213;SDS011;60138;55.808;37.078;2023-06-24T13:18:37;4.70;;;2.63;;
70213;SDS011;60138;55.808;37.078;2023-06-24T13:21:02;5.63;;;3.20;;
70213;SDS011;60138;55.808;37.078;2023-06-24T13:23:28;5.40;;;3.63;;
70213;SDS011;60138;55.808;37.078;2023-06-24T13:25:54;6.05;;;2.80;;
70213;SDS011;60138;55.808;37.078;2023-06-24T13:28:19;6.30;;;2.90;;
70213;SDS011;60138;55.808;37.078;2023-06-24T13:30:45;6.90;;;3.80;;
70213;SDS011;60138;55.808;37.078;2023-06-24T13:33:11;6.22;;;3.65;;
70213;SDS011;60138;55.808;37.078;2023-06-24T13:35:37;7.43;;;3.47;;
70213;SDS011;60138;55.808;37.078;2023-06-24T13:38:02;5.55;;;3.38;;
70213;SDS011;60138;55.808;37.078;2023-06-24T13:40:28;4.23;;;2.60;;
70213;SDS011;60138;55.808;37.078;2023-06-24T13:42:54;4.45;;;2.95;;
70213;SDS011;60138;55.808;37.078;2023-06-24T13:45:19;7.50;;;3.03;;
70213;SDS011;60138;55.808;37.078;2023-06-24T13:47:45;8.23;;;3.00;;
70213;SDS011;60138;55.808;37.078;2023-06-24T13:50:11;5.60;;;2.50;;
70213;SDS011;60138;55.808;37.078;2023-06-24T13:52:37;5.60;;;2.80;;
70213;SDS011;60138;55.808;37.078;2023-06-24T13:55:03;4.23;;;2.63;;
70213;SDS011;60138;55.808;37.078;2023-06-24T13:57:30;6.70;;;2.50;;
70213;SDS011;60138;55.808;37.078;2023-06-24T13:59:55;8.80;;;2.30;;
70213;SDS011;60138;55.808;37.078;2023-06-24T14:02:21;4.68;;;2.05;;
70213;SDS011;60138;55.808;37.078;2023-06-24T14:04:47;4.53;;;1.73;;
70213;SDS011;60138;55.808;37.078;2023-06-24T14:07:13;3.63;;;1.73;;
70213;SDS011;60138;55.808;37.078;2023-06-24T14:09:38;4.90;;;2.00;;
70213;SDS011;60138;55.808;37.078;2023-06-24T14:12:04;5.00;;;2.00;;
70213;SDS011;60138;55.808;37.078;2023-06-24T14:14:31;4.57;;;1.80;;
70213;SDS011;60138;55.808;37.078;2023-06-24T14:16:56;3.97;;;2.10;;
70213;SDS011;60138;55.808;37.078;2023-06-24T14:19:22;3.83;;;2.05;;
70213;SDS011;60138;55.808;37.078;2023-06-24T14:21:48;5.63;;;2.10;;
70213;SDS011;60138;55.808;37.078;2023-06-24T14:24:14;4.68;;;1.88;;
70213;SDS011;60138;55.808;37.078;2023-06-24T14:26:39;4.37;;;2.20;;
70213;SDS011;60138;55.808;37.078;2023-06-24T14:29:05;5.03;;;2.03;;
70213;SDS011;60138;55.808;37.078;2023-06-24T14:31:31;4.70;;;2.13;;
70213;SDS011;60138;55.808;37.078;2023-06-24T14:33:57;4.13;;;1.90;;
70213;SDS011;60138;55.808;37.078;2023-06-24T14:36:22;5.72;;;2.33;;
70213;SDS011;60138;55.808;37.078;2023-06-24T14:38:48;10.27;;;2.40;;
70213;SDS011;60138;55.808;37.078;2023-06-24T14:41:14;4.72;;;2.20;;
70213;SDS011;60138;55.808;37.078;2023-06-24T14:43:39;3.47;;;2.00;;
70213;SDS011;60138;55.808;37.078;2023-06-24T14:46:05;8.07;;;2.60;;
70213;SDS011;60138;55.808;37.078;2023-06-24T14:48:31;5.13;;;2.23;;
70213;SDS011;60138;55.808;37.078;2023-06-24T14:50:57;6.57;;;2.30;;
70213;SDS011;60138;55.808;37.078;2023-06-24T14:53:23;7.93;;;1.93;;
70213;SDS011;60138;55.808;37.078;2023-06-24T14:55:48;4.90;;;2.33;;
70213;SDS011;60138;55.808;37.078;2023-06-24T14:58:14;4.07;;;2.30;;
70213;SDS011;60138;55.808;37.078;2023-06-24T15:00:40;3.23;;;2.10;;
70213;SDS011;60138;55.808;37.078;2023-06-24T15:03:06;4.60;;;2.60;;
70213;SDS011;60138;55.808;37.078;2023-06-24T15:05:31;4.03;;;2.40;;
70213;SDS011;60138;55.808;37.078;2023-06-24T15:07:57;6.50;;;2.33;;
70213;SDS011;60138;55.808;37.078;2023-06-24T15:10:23;5.87;;;2.67;;
70213;SDS011;60138;55.808;37.078;2023-06-24T15:12:48;4.83;;;2.10;;
70213;SDS011;60138;55.808;37.078;2023-06-24T15:15:14;4.43;;;2.78;;
70213;SDS011;60138;55.808;37.078;2023-06-24T15:17:40;4.97;;;2.60;;
70213;SDS011;60138;55.808;37.078;2023-06-24T15:20:07;6.68;;;2.78;;
70213;SDS011;60138;55.808;37.078;2023-06-24T15:22:33;5.72;;;2.65;;
70213;SDS011;60138;55.808;37.078;2023-06-24T15:24:59;5.85;;;2.33;;
70213;SDS011;60138;55.808;37.078;2023-06-24T15:27:24;3.93;;;2.33;;
70213;SDS011;60138;55.808;37.078;2023-06-24T15:29:50;4.22;;;2.47;;
70213;SDS011;60138;55.808;37.078;2023-06-24T15:32:16;3.77;;;2.10;;
70213;SDS011;60138;55.808;37.078;2023-06-24T15:34:42;4.15;;;2.60;;
70213;SDS011;60138;55.808;37.078;2023-06-24T15:37:07;6.60;;;2.70;;
70213;SDS011;60138;55.808;37.078;2023-06-24T15:39:33;5.85;;;3.17;;
70213;SDS011;60138;55.808;37.078;2023-06-24T15:41:59;5.90;;;2.73;;
70213;SDS011;60138;55.808;37.078;2023-06-24T15:44:25;4.38;;;2.50;;
70213;SDS011;60138;55.808;37.078;2023-06-24T15:46:51;5.22;;;2.90;;
70213;SDS011;60138;55.808;37.078;2023-06-24T15:49:16;4.30;;;2.63;;
70213;SDS011;60138;55.808;37.078;2023-06-24T15:51:42;6.45;;;2.90;;
70213;SDS011;60138;55.808;37.078;2023-06-24T15:54:08;4.60;;;2.83;;
70213;SDS011;60138;55.808;37.078;2023-06-24T15:56:34;4.80;;;3.20;;
70213;SDS011;60138;55.808;37.078;2023-06-24T15:58:59;6.28;;;3.10;;
70213;SDS011;60138;55.808;37.078;2023-06-24T16:01:25;4.60;;;2.90;;
70213;SDS011;60138;55.808;37.078;2023-06-24T16:03:51;4.75;;;3.10;;